sensor_id;sensor_type;location;lat;lon;timestamp;temperature;humidity
5705;DHT22;2877;48.238;11.160;2023-05-10T00:01:52;13.20;99.90
5705;DHT22;2877;48.238;11.160;2023-05-10T00:04:18;13.20;99.90
5705;DHT22;2877;48.238;11.160;2023-05-10T00:06:43;13.10;99.90
5705;DHT22;2877;48.238;11.160;2023-05-10T00:09:09;13.10;99.90
5705;DHT22;2877;48.238;11.160;2023-05-10T00:11:34;13.10;99.90
5705;DHT22;2877;48.238;11.160;2023-05-10T00:14:00;13.10;99.90
5705;DHT22;2877;48.238;11.160;2023-05-10T00:16:25;13.20;99.90
5705;DHT22;2877;48.238;11.160;2023-05-10T00:18:51;13.20;99.90
5705;DHT22;2877;48.238;11.160;2023-05-10T00:21:16;13.30;99.90
5705;DHT22;2877;48.238;11.160;2023-05-10T00:23:42;13.20;99.90
5705;DHT22;2877;48.238;11.160;2023-05-10T00:26:07;13.20;99.90
5705;DHT22;2877;48.238;11.160;2023-05-10T00:28:33;13.20;99.90
5705;DHT22;2877;48.238;11.160;2023-05-10T00:30:58;13.30;99.90
5705;DHT22;2877;48.238;11.160;2023-05-10T00:33:24;13.30;99.90
5705;DHT22;2877;48.238;11.160;2023-05-10T00:35:50;13.10;99.90
5705;DHT22;2877;48.238;11.160;2023-05-10T00:38:15;13.20;99.90
5705;DHT22;2877;48.238;11.160;2023-05-10T00:40:41;13.10;99.90
5705;DHT22;2877;48.238;11.160;2023-05-10T00:43:06;13.20;99.90
5705;DHT22;2877;48.238;11.160;2023-05-10T00:45:35;13.20;99.90
5705;DHT22;2877;48.238;11.160;2023-05-10T00:48:02;13.20;99.90
5705;DHT22;2877;48.238;11.160;2023-05-10T00:50:29;13.20;99.90
5705;DHT22;2877;48.238;11.160;2023-05-10T00:52:56;13.20;99.90
5705;DHT22;2877;48.238;11.160;2023-05-10T00:55:22;13.10;99.90
5705;DHT22;2877;48.238;11.160;2023-05-10T00:57:47;13.10;99.90
5705;DHT22;2877;48.238;11.160;2023-05-10T01:00:13;13.10;99.90
5705;DHT22;2877;48.238;11.160;2023-05-10T01:02:44;13.00;99.90
5705;DHT22;2877;48.238;11.160;2023-05-10T01:05:09;13.10;99.90
5705;DHT22;2877;48.238;11.160;2023-05-10T01:07:35;13.10;99.90
5705;DHT22;2877;48.238;11.160;2023-05-10T01:10:01;13.00;99.90
5705;DHT22;2877;48.238;11.160;2023-05-10T01:12:26;13.00;99.90
5705;DHT22;2877;48.238;11.160;2023-05-10T01:14:52;13.00;99.90
5705;DHT22;2877;48.238;11.160;2023-05-10T01:17:19;13.10;99.90
5705;DHT22;2877;48.238;11.160;2023-05-10T01:19:46;13.10;99.90
5705;DHT22;2877;48.238;11.160;2023-05-10T01:34:06;12.90;99.90
5705;DHT22;2877;48.238;11.160;2023-05-10T01:36:44;12.90;99.90
5705;DHT22;2877;48.238;11.160;2023-05-10T01:39:35;12.90;99.90
5705;DHT22;2877;48.238;11.160;2023-05-10T01:42:09;12.90;99.90
5705;DHT22;2877;48.238;11.160;2023-05-10T01:47:37;13.00;99.90
5705;DHT22;2877;48.238;11.160;2023-05-10T01:50:08;13.00;99.90
5705;DHT22;2877;48.238;11.160;2023-05-10T01:52:42;12.90;99.90
5705;DHT22;2877;48.238;11.160;2023-05-10T01:55:14;12.90;99.90
5705;DHT22;2877;48.238;11.160;2023-05-10T01:57:43;12.90;99.90
5705;DHT22;2877;48.238;11.160;2023-05-10T02:00:10;12.80;99.90
5705;DHT22;2877;48.238;11.160;2023-05-10T02:02:40;12.90;99.90
5705;DHT22;2877;48.238;11.160;2023-05-10T02:05:08;12.90;99.90
5705;DHT22;2877;48.238;11.160;2023-05-10T02:07:36;12.80;99.90
5705;DHT22;2877;48.238;11.160;2023-05-10T02:10:04;12.70;99.90
5705;DHT22;2877;48.238;11.160;2023-05-10T02:12:32;12.60;99.90
5705;DHT22;2877;48.238;11.160;2023-05-10T02:15:02;12.60;99.90
5705;DHT22;2877;48.238;11.160;2023-05-10T02:17:31;12.60;99.90
5705;DHT22;2877;48.238;11.160;2023-05-10T02:19:59;12.60;99.90
5705;DHT22;2877;48.238;11.160;2023-05-10T02:22:26;12.60;99.90
5705;DHT22;2877;48.238;11.160;2023-05-10T02:24:54;12.60;99.90
5705;DHT22;2877;48.238;11.160;2023-05-10T02:27:20;12.60;99.90
5705;DHT22;2877;48.238;11.160;2023-05-10T02:29:46;12.50;99.90
5705;DHT22;2877;48.238;11.160;2023-05-10T02:32:13;12.50;99.90
5705;DHT22;2877;48.238;11.160;2023-05-10T02:34:40;12.50;99.90
5705;DHT22;2877;48.238;11.160;2023-05-10T02:37:06;12.50;99.90
5705;DHT22;2877;48.238;11.160;2023-05-10T02:39:32;12.50;99.90
5705;DHT22;2877;48.238;11.160;2023-05-10T02:41:58;12.50;99.90
5705;DHT22;2877;48.238;11.160;2023-05-10T02:44:26;12.50;99.90
5705;DHT22;2877;48.238;11.160;2023-05-10T02:46:54;12.50;99.90
5705;DHT22;2877;48.238;11.160;2023-05-10T02:49:21;12.50;99.90
5705;DHT22;2877;48.238;11.160;2023-05-10T02:52:00;12.40;99.90
5705;DHT22;2877;48.238;11.160;2023-05-10T02:54:32;12.40;99.90
5705;DHT22;2877;48.238;11.160;2023-05-10T02:56:59;12.40;99.90
5705;DHT22;2877;48.238;11.160;2023-05-10T02:59:26;12.40;99.90
5705;DHT22;2877;48.238;11.160;2023-05-10T03:01:52;12.40;99.90
5705;DHT22;2877;48.238;11.160;2023-05-10T03:04:17;12.40;99.90
5705;DHT22;2877;48.238;11.160;2023-05-10T03:06:43;12.40;99.90
5705;DHT22;2877;48.238;11.160;2023-05-10T03:09:09;12.40;99.90
5705;DHT22;2877;48.238;11.160;2023-05-10T03:11:56;12.30;99.90
5705;DHT22;2877;48.238;11.160;2023-05-10T03:17:15;12.40;99.90
5705;DHT22;2877;48.238;11.160;2023-05-10T03:19:51;12.40;99.90
5705;DHT22;2877;48.238;11.160;2023-05-10T03:22:38;12.40;99.90
5705;DHT22;2877;48.238;11.160;2023-05-10T03:25:08;12.40;99.90
5705;DHT22;2877;48.238;11.160;2023-05-10T03:27:36;12.40;99.90
5705;DHT22;2877;48.238;11.160;2023-05-10T03:30:05;12.40;99.90
5705;DHT22;2877;48.238;11.160;2023-05-10T03:32:30;12.40;99.90
5705;DHT22;2877;48.238;11.160;2023-05-10T03:34:57;12.40;99.90
5705;DHT22;2877;48.238;11.160;2023-05-10T03:37:23;12.30;99.90
5705;DHT22;2877;48.238;11.160;2023-05-10T03:39:48;12.30;99.90
5705;DHT22;2877;48.238;11.160;2023-05-10T03:42:14;12.30;99.90
5705;DHT22;2877;48.238;11.160;2023-05-10T03:44:39;12.30;99.90
5705;DHT22;2877;48.238;11.160;2023-05-10T03:47:05;12.30;99.90
5705;DHT22;2877;48.238;11.160;2023-05-10T03:49:30;12.20;99.90
5705;DHT22;2877;48.238;11.160;2023-05-10T03:51:56;12.20;99.90
5705;DHT22;2877;48.238;11.160;2023-05-10T03:54:21;12.20;99.90
5705;DHT22;2877;48.238;11.160;2023-05-10T03:56:47;12.20;99.90
5705;DHT22;2877;48.238;11.160;2023-05-10T03:59:13;12.20;99.90
5705;DHT22;2877;48.238;11.160;2023-05-10T04:01:39;12.10;99.90
5705;DHT22;2877;48.238;11.160;2023-05-10T04:04:04;12.10;99.90
5705;DHT22;2877;48.238;11.160;2023-05-10T04:06:30;12.10;99.90
5705;DHT22;2877;48.238;11.160;2023-05-10T04:08:56;12.10;99.90
5705;DHT22;2877;48.238;11.160;2023-05-10T04:11:21;12.10;99.90
5705;DHT22;2877;48.238;11.160;2023-05-10T04:13:47;12.10;99.90
5705;DHT22;2877;48.238;11.160;2023-05-10T04:16:13;12.10;99.90
5705;DHT22;2877;48.238;11.160;2023-05-10T04:18:38;12.10;99.90
5705;DHT22;2877;48.238;11.160;2023-05-10T04:21:10;12.00;99.90
5705;DHT22;2877;48.238;11.160;2023-05-10T04:23:36;11.90;99.90
5705;DHT22;2877;48.238;11.160;2023-05-10T04:26:02;11.90;99.90
5705;DHT22;2877;48.238;11.160;2023-05-10T04:28:27;11.80;99.90
5705;DHT22;2877;48.238;11.160;2023-05-10T04:30:53;11.70;99.90
5705;DHT22;2877;48.238;11.160;2023-05-10T04:33:18;11.70;99.90
5705;DHT22;2877;48.238;11.160;2023-05-10T04:35:44;11.70;99.90
5705;DHT22;2877;48.238;11.160;2023-05-10T04:38:10;11.60;99.90
5705;DHT22;2877;48.238;11.160;2023-05-10T04:40:35;11.40;99.90
5705;DHT22;2877;48.238;11.160;2023-05-10T04:43:01;11.40;99.90
5705;DHT22;2877;48.238;11.160;2023-05-10T04:45:26;11.30;99.90
5705;DHT22;2877;48.238;11.160;2023-05-10T04:47:52;11.20;99.90
5705;DHT22;2877;48.238;11.160;2023-05-10T04:50:17;11.20;99.90
5705;DHT22;2877;48.238;11.160;2023-05-10T04:52:43;11.20;99.90
5705;DHT22;2877;48.238;11.160;2023-05-10T04:55:08;11.20;99.90
5705;DHT22;2877;48.238;11.160;2023-05-10T04:57:35;11.20;99.90
5705;DHT22;2877;48.238;11.160;2023-05-10T05:00:00;11.10;99.90
5705;DHT22;2877;48.238;11.160;2023-05-10T05:02:26;11.10;99.90
5705;DHT22;2877;48.238;11.160;2023-05-10T05:04:51;11.10;99.90
5705;DHT22;2877;48.238;11.160;2023-05-10T05:07:17;11.10;99.90
5705;DHT22;2877;48.238;11.160;2023-05-10T05:09:42;11.10;99.90
5705;DHT22;2877;48.238;11.160;2023-05-10T05:12:08;11.10;99.90
5705;DHT22;2877;48.238;11.160;2023-05-10T05:14:39;11.10;99.90
5705;DHT22;2877;48.238;11.160;2023-05-10T05:17:04;11.10;99.90
5705;DHT22;2877;48.238;11.160;2023-05-10T05:19:31;11.10;99.90
5705;DHT22;2877;48.238;11.160;2023-05-10T05:21:56;11.20;99.90
5705;DHT22;2877;48.238;11.160;2023-05-10T05:24:22;11.10;99.90
5705;DHT22;2877;48.238;11.160;2023-05-10T05:26:48;11.10;99.90
5705;DHT22;2877;48.238;11.160;2023-05-10T05:29:13;11.20;99.90
5705;DHT22;2877;48.238;11.160;2023-05-10T05:31:39;11.20;99.90
5705;DHT22;2877;48.238;11.160;2023-05-10T05:34:04;11.20;99.90
5705;DHT22;2877;48.238;11.160;2023-05-10T05:36:30;11.20;99.90
5705;DHT22;2877;48.238;11.160;2023-05-10T05:38:56;11.30;99.90
5705;DHT22;2877;48.238;11.160;2023-05-10T05:41:22;11.30;99.90
5705;DHT22;2877;48.238;11.160;2023-05-10T05:43:49;11.40;99.90
5705;DHT22;2877;48.238;11.160;2023-05-10T05:46:14;11.40;99.90
5705;DHT22;2877;48.238;11.160;2023-05-10T05:48:40;11.40;99.90
5705;DHT22;2877;48.238;11.160;2023-05-10T05:51:05;11.40;99.90
5705;DHT22;2877;48.238;11.160;2023-05-10T05:53:31;11.50;99.90
5705;DHT22;2877;48.238;11.160;2023-05-10T05:55:58;11.50;99.90
5705;DHT22;2877;48.238;11.160;2023-05-10T05:58:24;11.50;99.90
5705;DHT22;2877;48.238;11.160;2023-05-10T06:00:51;11.60;99.90
5705;DHT22;2877;48.238;11.160;2023-05-10T06:03:17;11.60;99.90
5705;DHT22;2877;48.238;11.160;2023-05-10T06:05:43;11.60;99.90
5705;DHT22;2877;48.238;11.160;2023-05-10T06:08:09;11.70;99.90
5705;DHT22;2877;48.238;11.160;2023-05-10T06:10:35;11.70;99.90
5705;DHT22;2877;48.238;11.160;2023-05-10T06:13:00;11.80;99.90
5705;DHT22;2877;48.238;11.160;2023-05-10T06:15:27;11.80;99.90
5705;DHT22;2877;48.238;11.160;2023-05-10T06:17:52;11.90;99.90
5705;DHT22;2877;48.238;11.160;2023-05-10T06:20:18;12.00;99.90
5705;DHT22;2877;48.238;11.160;2023-05-10T06:22:43;12.10;99.90
5705;DHT22;2877;48.238;11.160;2023-05-10T06:25:09;12.10;99.90
5705;DHT22;2877;48.238;11.160;2023-05-10T06:27:35;12.10;99.90
5705;DHT22;2877;48.238;11.160;2023-05-10T06:30:00;12.20;99.90
5705;DHT22;2877;48.238;11.160;2023-05-10T06:32:26;12.30;99.90
5705;DHT22;2877;48.238;11.160;2023-05-10T06:34:51;12.40;99.90
5705;DHT22;2877;48.238;11.160;2023-05-10T06:37:17;12.40;99.90
5705;DHT22;2877;48.238;11.160;2023-05-10T06:39:43;12.50;99.90
5705;DHT22;2877;48.238;11.160;2023-05-10T06:42:08;12.60;99.90
5705;DHT22;2877;48.238;11.160;2023-05-10T06:44:33;12.60;99.90
5705;DHT22;2877;48.238;11.160;2023-05-10T06:46:59;12.70;99.90
5705;DHT22;2877;48.238;11.160;2023-05-10T06:49:25;12.80;99.90
5705;DHT22;2877;48.238;11.160;2023-05-10T06:51:50;12.90;99.90
5705;DHT22;2877;48.238;11.160;2023-05-10T06:54:16;12.70;99.90
5705;DHT22;2877;48.238;11.160;2023-05-10T06:56:41;12.60;99.90
5705;DHT22;2877;48.238;11.160;2023-05-10T06:59:07;12.50;99.90
5705;DHT22;2877;48.238;11.160;2023-05-10T07:01:32;12.70;99.90
5705;DHT22;2877;48.238;11.160;2023-05-10T07:03:58;12.80;99.90
5705;DHT22;2877;48.238;11.160;2023-05-10T07:06:23;12.80;99.90
5705;DHT22;2877;48.238;11.160;2023-05-10T07:08:49;12.90;99.90
5705;DHT22;2877;48.238;11.160;2023-05-10T07:11:14;13.00;99.90
5705;DHT22;2877;48.238;11.160;2023-05-10T07:13:40;13.10;99.90
5705;DHT22;2877;48.238;11.160;2023-05-10T07:16:09;13.10;99.90
5705;DHT22;2877;48.238;11.160;2023-05-10T07:18:35;13.10;99.90
5705;DHT22;2877;48.238;11.160;2023-05-10T07:21:01;13.10;99.90
5705;DHT22;2877;48.238;11.160;2023-05-10T07:23:27;13.00;99.90
5705;DHT22;2877;48.238;11.160;2023-05-10T07:25:53;13.30;99.90
5705;DHT22;2877;48.238;11.160;2023-05-10T07:28:19;13.50;99.90
5705;DHT22;2877;48.238;11.160;2023-05-10T07:30:45;13.50;99.90
5705;DHT22;2877;48.238;11.160;2023-05-10T07:33:12;13.60;99.90
5705;DHT22;2877;48.238;11.160;2023-05-10T07:35:38;13.70;99.90
5705;DHT22;2877;48.238;11.160;2023-05-10T07:38:04;13.60;99.90
5705;DHT22;2877;48.238;11.160;2023-05-10T07:40:29;13.70;99.90
5705;DHT22;2877;48.238;11.160;2023-05-10T07:42:55;13.80;99.90
5705;DHT22;2877;48.238;11.160;2023-05-10T07:45:21;13.90;99.90
5705;DHT22;2877;48.238;11.160;2023-05-10T07:47:46;13.90;99.90
5705;DHT22;2877;48.238;11.160;2023-05-10T07:50:12;13.80;99.90
5705;DHT22;2877;48.238;11.160;2023-05-10T07:52:37;13.60;99.90
5705;DHT22;2877;48.238;11.160;2023-05-10T07:55:03;13.70;99.90
5705;DHT22;2877;48.238;11.160;2023-05-10T07:57:29;13.80;99.90
5705;DHT22;2877;48.238;11.160;2023-05-10T07:59:54;13.90;99.90
5705;DHT22;2877;48.238;11.160;2023-05-10T08:02:20;13.80;99.90
5705;DHT22;2877;48.238;11.160;2023-05-10T08:04:45;13.90;99.90
5705;DHT22;2877;48.238;11.160;2023-05-10T08:07:11;13.90;99.90
5705;DHT22;2877;48.238;11.160;2023-05-10T08:09:37;13.90;99.90
5705;DHT22;2877;48.238;11.160;2023-05-10T08:12:02;14.10;99.90
5705;DHT22;2877;48.238;11.160;2023-05-10T08:14:28;14.20;99.90
5705;DHT22;2877;48.238;11.160;2023-05-10T08:16:54;14.20;99.90
5705;DHT22;2877;48.238;11.160;2023-05-10T08:19:20;14.40;99.90
5705;DHT22;2877;48.238;11.160;2023-05-10T08:21:46;14.50;99.90
5705;DHT22;2877;48.238;11.160;2023-05-10T08:24:12;14.80;99.90
5705;DHT22;2877;48.238;11.160;2023-05-10T08:26:38;15.00;99.90
5705;DHT22;2877;48.238;11.160;2023-05-10T08:29:03;15.00;99.90
5705;DHT22;2877;48.238;11.160;2023-05-10T08:31:29;15.00;99.90
5705;DHT22;2877;48.238;11.160;2023-05-10T08:33:54;14.70;99.90
5705;DHT22;2877;48.238;11.160;2023-05-10T08:36:20;14.70;99.90
5705;DHT22;2877;48.238;11.160;2023-05-10T08:38:53;14.60;99.90
5705;DHT22;2877;48.238;11.160;2023-05-10T08:41:22;14.70;99.90
5705;DHT22;2877;48.238;11.160;2023-05-10T08:43:53;14.80;99.90
5705;DHT22;2877;48.238;11.160;2023-05-10T08:46:20;14.90;99.90
5705;DHT22;2877;48.238;11.160;2023-05-10T08:48:47;15.40;99.90
5705;DHT22;2877;48.238;11.160;2023-05-10T08:51:19;15.60;99.90
5705;DHT22;2877;48.238;11.160;2023-05-10T08:53:47;15.50;99.90
5705;DHT22;2877;48.238;11.160;2023-05-10T08:56:13;15.40;99.90
5705;DHT22;2877;48.238;11.160;2023-05-10T08:58:38;15.20;99.90
5705;DHT22;2877;48.238;11.160;2023-05-10T09:01:05;14.90;99.90
5705;DHT22;2877;48.238;11.160;2023-05-10T09:03:31;14.70;99.90
5705;DHT22;2877;48.238;11.160;2023-05-10T09:05:57;14.60;99.90
5705;DHT22;2877;48.238;11.160;2023-05-10T09:08:23;14.40;99.90
5705;DHT22;2877;48.238;11.160;2023-05-10T09:10:53;14.50;99.90
5705;DHT22;2877;48.238;11.160;2023-05-10T09:13:21;14.50;99.90
5705;DHT22;2877;48.238;11.160;2023-05-10T09:15:47;14.50;99.90
5705;DHT22;2877;48.238;11.160;2023-05-10T09:18:13;14.40;99.90
5705;DHT22;2877;48.238;11.160;2023-05-10T09:20:39;14.40;99.90
5705;DHT22;2877;48.238;11.160;2023-05-10T09:23:04;14.60;99.90
5705;DHT22;2877;48.238;11.160;2023-05-10T09:25:31;14.70;99.90
5705;DHT22;2877;48.238;11.160;2023-05-10T09:27:58;15.20;99.90
5705;DHT22;2877;48.238;11.160;2023-05-10T09:30:26;15.70;99.90
5705;DHT22;2877;48.238;11.160;2023-05-10T09:32:53;16.20;99.90
5705;DHT22;2877;48.238;11.160;2023-05-10T09:35:20;16.20;99.90
5705;DHT22;2877;48.238;11.160;2023-05-10T09:37:49;16.00;99.90
5705;DHT22;2877;48.238;11.160;2023-05-10T09:40:17;15.90;99.90
5705;DHT22;2877;48.238;11.160;2023-05-10T09:42:51;15.80;99.90
5705;DHT22;2877;48.238;11.160;2023-05-10T09:45:17;16.10;99.90
5705;DHT22;2877;48.238;11.160;2023-05-10T09:47:42;16.30;99.90
5705;DHT22;2877;48.238;11.160;2023-05-10T09:50:09;16.30;99.90
5705;DHT22;2877;48.238;11.160;2023-05-10T09:55:13;16.50;99.90
5705;DHT22;2877;48.238;11.160;2023-05-10T09:57:39;16.50;99.90
5705;DHT22;2877;48.238;11.160;2023-05-10T10:00:05;16.60;99.90
5705;DHT22;2877;48.238;11.160;2023-05-10T10:02:32;16.70;99.90
5705;DHT22;2877;48.238;11.160;2023-05-10T10:04:57;16.50;99.90
5705;DHT22;2877;48.238;11.160;2023-05-10T10:07:24;16.20;99.90
5705;DHT22;2877;48.238;11.160;2023-05-10T10:09:53;16.40;99.90
5705;DHT22;2877;48.238;11.160;2023-05-10T10:12:19;16.60;99.90
5705;DHT22;2877;48.238;11.160;2023-05-10T10:14:46;16.40;99.90
5705;DHT22;2877;48.238;11.160;2023-05-10T10:17:13;16.30;99.90
5705;DHT22;2877;48.238;11.160;2023-05-10T10:19:39;16.20;99.90
5705;DHT22;2877;48.238;11.160;2023-05-10T10:22:05;16.10;99.90
5705;DHT22;2877;48.238;11.160;2023-05-10T10:24:31;15.70;99.90
5705;DHT22;2877;48.238;11.160;2023-05-10T10:27:15;15.30;99.90
5705;DHT22;2877;48.238;11.160;2023-05-10T10:30:02;15.10;99.90
5705;DHT22;2877;48.238;11.160;2023-05-10T10:35:33;15.10;99.90
5705;DHT22;2877;48.238;11.160;2023-05-10T10:37:59;15.00;99.90
5705;DHT22;2877;48.238;11.160;2023-05-10T10:40:27;14.60;99.90
5705;DHT22;2877;48.238;11.160;2023-05-10T10:42:53;13.80;99.90
5705;DHT22;2877;48.238;11.160;2023-05-10T10:45:19;13.30;99.90
5705;DHT22;2877;48.238;11.160;2023-05-10T10:47:46;13.00;99.90
5705;DHT22;2877;48.238;11.160;2023-05-10T10:50:12;12.90;99.90
5705;DHT22;2877;48.238;11.160;2023-05-10T10:52:44;12.60;99.90
5705;DHT22;2877;48.238;11.160;2023-05-10T10:55:28;12.50;99.90
5705;DHT22;2877;48.238;11.160;2023-05-10T10:57:56;12.40;99.90
5705;DHT22;2877;48.238;11.160;2023-05-10T11:00:33;12.50;99.90
5705;DHT22;2877;48.238;11.160;2023-05-10T11:03:06;12.60;99.90
5705;DHT22;2877;48.238;11.160;2023-05-10T11:08:21;12.60;99.90
5705;DHT22;2877;48.238;11.160;2023-05-10T11:13:44;12.70;99.90
5705;DHT22;2877;48.238;11.160;2023-05-10T11:16:21;12.80;99.90
5705;DHT22;2877;48.238;11.160;2023-05-10T11:19:06;13.00;99.90
5705;DHT22;2877;48.238;11.160;2023-05-10T11:21:33;13.40;99.90
5705;DHT22;2877;48.238;11.160;2023-05-10T11:24:01;13.80;99.90
5705;DHT22;2877;48.238;11.160;2023-05-10T11:26:32;13.90;99.90
5705;DHT22;2877;48.238;11.160;2023-05-10T11:28:59;13.90;99.90
5705;DHT22;2877;48.238;11.160;2023-05-10T11:31:26;13.80;99.90
5705;DHT22;2877;48.238;11.160;2023-05-10T11:33:59;13.60;99.90
5705;DHT22;2877;48.238;11.160;2023-05-10T11:36:28;13.40;99.90
5705;DHT22;2877;48.238;11.160;2023-05-10T11:38:55;13.20;99.90
5705;DHT22;2877;48.238;11.160;2023-05-10T11:41:23;13.10;99.90
5705;DHT22;2877;48.238;11.160;2023-05-10T11:43:53;13.10;99.90
5705;DHT22;2877;48.238;11.160;2023-05-10T11:46:21;13.10;99.90
5705;DHT22;2877;48.238;11.160;2023-05-10T11:48:50;13.00;99.90
5705;DHT22;2877;48.238;11.160;2023-05-10T11:51:20;13.00;99.90
5705;DHT22;2877;48.238;11.160;2023-05-10T11:53:46;13.20;99.90
5705;DHT22;2877;48.238;11.160;2023-05-10T11:56:11;13.40;99.90
5705;DHT22;2877;48.238;11.160;2023-05-10T11:58:38;13.50;99.90
5705;DHT22;2877;48.238;11.160;2023-05-10T12:01:05;13.60;99.90
5705;DHT22;2877;48.238;11.160;2023-05-10T12:03:32;13.70;99.90
5705;DHT22;2877;48.238;11.160;2023-05-10T12:05:58;13.70;99.90
5705;DHT22;2877;48.238;11.160;2023-05-10T12:08:26;13.80;99.90
5705;DHT22;2877;48.238;11.160;2023-05-10T12:10:53;13.90;99.90
5705;DHT22;2877;48.238;11.160;2023-05-10T12:13:20;13.80;99.90
5705;DHT22;2877;48.238;11.160;2023-05-10T12:15:45;13.80;99.90
5705;DHT22;2877;48.238;11.160;2023-05-10T12:18:12;13.80;99.90
5705;DHT22;2877;48.238;11.160;2023-05-10T12:20:38;13.90;99.90
5705;DHT22;2877;48.238;11.160;2023-05-10T12:23:04;14.10;99.90
5705;DHT22;2877;48.238;11.160;2023-05-10T12:25:38;14.00;99.90
5705;DHT22;2877;48.238;11.160;2023-05-10T12:28:07;13.90;99.90
5705;DHT22;2877;48.238;11.160;2023-05-10T12:30:34;13.80;99.90
5705;DHT22;2877;48.238;11.160;2023-05-10T12:33:13;13.80;99.90
5705;DHT22;2877;48.238;11.160;2023-05-10T12:35:52;13.80;99.90
5705;DHT22;2877;48.238;11.160;2023-05-10T12:38:38;13.60;99.90
5705;DHT22;2877;48.238;11.160;2023-05-10T12:41:08;13.50;99.90
5705;DHT22;2877;48.238;11.160;2023-05-10T12:43:35;13.40;99.90
5705;DHT22;2877;48.238;11.160;2023-05-10T12:48:31;13.40;99.90
5705;DHT22;2877;48.238;11.160;2023-05-10T12:50:57;13.30;99.90
5705;DHT22;2877;48.238;11.160;2023-05-10T12:53:22;13.20;99.90
5705;DHT22;2877;48.238;11.160;2023-05-10T12:55:48;13.30;99.90
5705;DHT22;2877;48.238;11.160;2023-05-10T12:58:13;13.30;99.90
5705;DHT22;2877;48.238;11.160;2023-05-10T13:00:39;13.20;99.90
5705;DHT22;2877;48.238;11.160;2023-05-10T13:03:05;13.20;99.90
5705;DHT22;2877;48.238;11.160;2023-05-10T13:05:35;13.20;99.90
5705;DHT22;2877;48.238;11.160;2023-05-10T13:08:01;13.10;99.90
5705;DHT22;2877;48.238;11.160;2023-05-10T13:10:27;13.00;99.90
5705;DHT22;2877;48.238;11.160;2023-05-10T13:12:53;12.70;99.90
5705;DHT22;2877;48.238;11.160;2023-05-10T13:15:18;12.60;99.90
5705;DHT22;2877;48.238;11.160;2023-05-10T13:17:44;12.60;99.90
5705;DHT22;2877;48.238;11.160;2023-05-10T13:20:10;12.50;99.90
5705;DHT22;2877;48.238;11.160;2023-05-10T13:22:36;12.50;99.90
5705;DHT22;2877;48.238;11.160;2023-05-10T13:25:01;12.40;99.90
5705;DHT22;2877;48.238;11.160;2023-05-10T13:27:27;12.40;99.90
5705;DHT22;2877;48.238;11.160;2023-05-10T13:29:53;12.50;99.90
5705;DHT22;2877;48.238;11.160;2023-05-10T13:32:18;12.30;99.90
5705;DHT22;2877;48.238;11.160;2023-05-10T13:34:44;12.00;99.90
5705;DHT22;2877;48.238;11.160;2023-05-10T13:37:09;11.80;99.90
5705;DHT22;2877;48.238;11.160;2023-05-10T13:39:35;11.60;99.90
5705;DHT22;2877;48.238;11.160;2023-05-10T13:42:03;11.70;99.90
5705;DHT22;2877;48.238;11.160;2023-05-10T13:44:28;11.80;99.90
5705;DHT22;2877;48.238;11.160;2023-05-10T13:46:54;11.80;99.90
5705;DHT22;2877;48.238;11.160;2023-05-10T13:49:20;11.80;99.90
5705;DHT22;2877;48.238;11.160;2023-05-10T13:51:46;12.00;99.90
5705;DHT22;2877;48.238;11.160;2023-05-10T13:54:12;11.90;99.90
5705;DHT22;2877;48.238;11.160;2023-05-10T13:56:37;11.80;99.90
5705;DHT22;2877;48.238;11.160;2023-05-10T13:59:03;11.50;99.90
5705;DHT22;2877;48.238;11.160;2023-05-10T14:01:28;11.30;99.90
5705;DHT22;2877;48.238;11.160;2023-05-10T14:03:54;11.00;99.90
5705;DHT22;2877;48.238;11.160;2023-05-10T14:06:19;10.90;99.90
5705;DHT22;2877;48.238;11.160;2023-05-10T14:08:45;11.00;99.90
5705;DHT22;2877;48.238;11.160;2023-05-10T14:11:11;11.20;99.90
5705;DHT22;2877;48.238;11.160;2023-05-10T14:13:36;11.40;99.90
5705;DHT22;2877;48.238;11.160;2023-05-10T14:16:02;11.50;99.90
5705;DHT22;2877;48.238;11.160;2023-05-10T14:18:28;11.30;99.90
5705;DHT22;2877;48.238;11.160;2023-05-10T14:20:53;11.40;99.90
5705;DHT22;2877;48.238;11.160;2023-05-10T14:23:21;11.40;99.90
5705;DHT22;2877;48.238;11.160;2023-05-10T14:25:50;11.30;99.90
5705;DHT22;2877;48.238;11.160;2023-05-10T14:28:16;11.40;99.90
5705;DHT22;2877;48.238;11.160;2023-05-10T14:30:42;11.50;99.90
5705;DHT22;2877;48.238;11.160;2023-05-10T14:33:08;11.40;99.90
5705;DHT22;2877;48.238;11.160;2023-05-10T14:35:34;11.00;99.90
5705;DHT22;2877;48.238;11.160;2023-05-10T14:37:59;10.70;99.90
5705;DHT22;2877;48.238;11.160;2023-05-10T14:40:25;10.70;99.90
5705;DHT22;2877;48.238;11.160;2023-05-10T14:42:51;10.70;99.90
5705;DHT22;2877;48.238;11.160;2023-05-10T14:45:18;10.70;99.90
5705;DHT22;2877;48.238;11.160;2023-05-10T14:47:44;10.90;99.90
5705;DHT22;2877;48.238;11.160;2023-05-10T14:50:09;10.70;99.90
5705;DHT22;2877;48.238;11.160;2023-05-10T14:52:35;10.80;99.90
5705;DHT22;2877;48.238;11.160;2023-05-10T14:55:01;10.80;99.90
5705;DHT22;2877;48.238;11.160;2023-05-10T14:57:27;10.60;99.90
5705;DHT22;2877;48.238;11.160;2023-05-10T14:59:55;10.40;99.90
5705;DHT22;2877;48.238;11.160;2023-05-10T15:02:21;10.40;99.90
5705;DHT22;2877;48.238;11.160;2023-05-10T15:04:47;10.40;99.90
5705;DHT22;2877;48.238;11.160;2023-05-10T15:07:12;10.50;99.90
5705;DHT22;2877;48.238;11.160;2023-05-10T15:09:40;10.50;99.90
5705;DHT22;2877;48.238;11.160;2023-05-10T15:12:05;10.30;99.90
5705;DHT22;2877;48.238;11.160;2023-05-10T15:14:31;10.20;99.90
5705;DHT22;2877;48.238;11.160;2023-05-10T15:16:58;10.20;99.90
5705;DHT22;2877;48.238;11.160;2023-05-10T15:19:23;10.30;99.90
5705;DHT22;2877;48.238;11.160;2023-05-10T15:21:49;10.30;99.90
5705;DHT22;2877;48.238;11.160;2023-05-10T15:24:14;10.30;99.90
5705;DHT22;2877;48.238;11.160;2023-05-10T15:26:40;10.30;99.90
5705;DHT22;2877;48.238;11.160;2023-05-10T15:29:06;10.30;99.90
5705;DHT22;2877;48.238;11.160;2023-05-10T15:31:31;10.40;99.90
5705;DHT22;2877;48.238;11.160;2023-05-10T15:34:00;10.50;99.90
5705;DHT22;2877;48.238;11.160;2023-05-10T15:36:26;10.50;99.90
5705;DHT22;2877;48.238;11.160;2023-05-10T15:38:52;10.50;99.90
5705;DHT22;2877;48.238;11.160;2023-05-10T15:41:18;10.50;99.90
5705;DHT22;2877;48.238;11.160;2023-05-10T15:43:44;10.50;99.90
5705;DHT22;2877;48.238;11.160;2023-05-10T15:46:09;10.50;99.90
5705;DHT22;2877;48.238;11.160;2023-05-10T15:48:35;10.60;99.90
5705;DHT22;2877;48.238;11.160;2023-05-10T15:51:00;10.60;99.90
5705;DHT22;2877;48.238;11.160;2023-05-10T15:53:26;10.70;99.90
5705;DHT22;2877;48.238;11.160;2023-05-10T15:55:52;10.70;99.90
5705;DHT22;2877;48.238;11.160;2023-05-10T15:58:18;10.70;99.90
5705;DHT22;2877;48.238;11.160;2023-05-10T16:00:43;10.70;99.90
5705;DHT22;2877;48.238;11.160;2023-05-10T16:03:09;10.70;99.90
5705;DHT22;2877;48.238;11.160;2023-05-10T16:05:34;10.70;99.90
5705;DHT22;2877;48.238;11.160;2023-05-10T16:08:00;10.70;99.90
5705;DHT22;2877;48.238;11.160;2023-05-10T16:10:26;10.50;99.90
5705;DHT22;2877;48.238;11.160;2023-05-10T16:12:53;10.40;99.90
5705;DHT22;2877;48.238;11.160;2023-05-10T16:15:19;10.30;99.90